sensor_id;sensor_type;location;lat;lon;timestamp;pressure;altitude;pressure_sealevel;temperature;humidity
41044;BME280;51680;49.806;18.774;2023-06-22T00:00:44;97655.81;;;22.01;92.46
41044;BME280;51680;49.806;18.774;2023-06-22T00:03:46;97658.84;;;22.06;91.84
41044;BME280;51680;49.806;18.774;2023-06-22T00:06:48;97660.19;;;22.10;91.77
41044;BME280;51680;49.806;18.774;2023-06-22T00:09:51;97657.50;;;22.10;91.76
41044;BME280;51680;49.806;18.774;2023-06-22T00:12:54;97661.53;;;22.14;91.72
41044;BME280;51680;49.806;18.774;2023-06-22T00:15:56;97658.34;;;22.02;92.57
41044;BME280;51680;49.806;18.774;2023-06-22T00:18:58;97653.50;;;22.06;91.96
41044;BME280;51680;49.806;18.774;2023-06-22T00:22:03;97653.03;;;22.10;91.73
41044;BME280;51680;49.806;18.774;2023-06-22T00:25:06;97642.72;;;22.07;92.00
41044;BME280;51680;49.806;18.774;2023-06-22T00:28:10;97647.56;;;22.12;91.29
41044;BME280;51680;49.806;18.774;2023-06-22T00:31:11;97641.75;;;22.16;90.79
41044;BME280;51680;49.806;18.774;2023-06-22T00:34:13;97643.75;;;22.14;91.16
41044;BME280;51680;49.806;18.774;2023-06-22T00:37:34;97638.59;;;22.13;90.74
41044;BME280;51680;49.806;18.774;2023-06-22T00:40:36;97635.09;;;22.12;90.74
41044;BME280;51680;49.806;18.774;2023-06-22T00:43:40;97627.28;;;22.19;90.12
41044;BME280;51680;49.806;18.774;2023-06-22T00:46:43;97640.59;;;22.19;90.11
41044;BME280;51680;49.806;18.774;2023-06-22T00:49:45;97632.25;;;22.14;90.10
41044;BME280;51680;49.806;18.774;2023-06-22T00:52:51;97626.91;;;22.06;90.64
41044;BME280;51680;49.806;18.774;2023-06-22T00:55:53;97629.56;;;22.06;90.53
41044;BME280;51680;49.806;18.774;2023-06-22T00:58:58;97632.59;;;22.03;90.84
41044;BME280;51680;49.806;18.774;2023-06-22T01:02:00;97634.91;;;21.98;90.96
41044;BME280;51680;49.806;18.774;2023-06-22T01:05:03;97632.88;;;21.92;91.29
41044;BME280;51680;49.806;18.774;2023-06-22T01:08:12;97637.22;;;21.93;91.20
41044;BME280;51680;49.806;18.774;2023-06-22T01:11:21;97637.84;;;21.87;91.59
41044;BME280;51680;49.806;18.774;2023-06-22T01:14:31;97635.72;;;21.90;91.36
41044;BME280;51680;49.806;18.774;2023-06-22T01:17:40;97632.47;;;21.71;92.92
41044;BME280;51680;49.806;18.774;2023-06-22T01:20:45;97622.78;;;21.62;93.08
41044;BME280;51680;49.806;18.774;2023-06-22T01:23:57;97607.47;;;21.56;93.96
41044;BME280;51680;49.806;18.774;2023-06-22T01:27:09;97601.28;;;21.39;94.95
41044;BME280;51680;49.806;18.774;2023-06-22T01:30:18;97605.66;;;21.23;95.78
41044;BME280;51680;49.806;18.774;2023-06-22T01:33:22;97607.91;;;21.10;96.30
41044;BME280;51680;49.806;18.774;2023-06-22T01:36:26;97606.19;;;20.93;98.37
41044;BME280;51680;49.806;18.774;2023-06-22T01:39:28;97610.38;;;21.03;96.59
41044;BME280;51680;49.806;18.774;2023-06-22T01:42:31;97605.22;;;21.02;96.78
41044;BME280;51680;49.806;18.774;2023-06-22T01:45:35;97615.59;;;21.13;95.85
41044;BME280;51680;49.806;18.774;2023-06-22T01:48:38;97612.63;;;21.24;95.32
41044;BME280;51680;49.806;18.774;2023-06-22T01:51:40;97611.03;;;21.31;94.99
41044;BME280;51680;49.806;18.774;2023-06-22T01:54:43;97618.06;;;21.40;94.26
41044;BME280;51680;49.806;18.774;2023-06-22T01:57:44;97607.09;;;21.43;93.80
41044;BME280;51680;49.806;18.774;2023-06-22T02:00:51;97622.06;;;21.52;93.18
41044;BME280;51680;49.806;18.774;2023-06-22T02:04:02;97622.06;;;21.52;93.20
41044;BME280;51680;49.806;18.774;2023-06-22T02:07:09;97624.44;;;21.55;92.59
41044;BME280;51680;49.806;18.774;2023-06-22T02:10:15;97640.06;;;21.66;91.54
41044;BME280;51680;49.806;18.774;2023-06-22T02:13:18;97648.78;;;21.76;91.12
41044;BME280;51680;49.806;18.774;2023-06-22T02:16:22;97657.13;;;21.89;90.72
41044;BME280;51680;49.806;18.774;2023-06-22T02:19:24;97664.81;;;22.00;90.22
41044;BME280;51680;49.806;18.774;2023-06-22T02:22:27;97665.84;;;22.07;90.18
41044;BME280;51680;49.806;18.774;2023-06-22T02:25:29;97654.84;;;22.10;89.87
41044;BME280;51680;49.806;18.774;2023-06-22T02:28:32;97653.84;;;22.11;89.56
41044;BME280;51680;49.806;18.774;2023-06-22T02:31:35;97654.19;;;22.08;89.37
41044;BME280;51680;49.806;18.774;2023-06-22T02:34:37;97666.50;;;22.09;88.95
41044;BME280;51680;49.806;18.774;2023-06-22T02:37:39;97668.31;;;22.08;88.91
41044;BME280;51680;49.806;18.774;2023-06-22T02:40:42;97670.81;;;22.10;88.64
41044;BME280;51680;49.806;18.774;2023-06-22T02:43:44;97672.66;;;22.17;88.27
41044;BME280;51680;49.806;18.774;2023-06-22T02:46:48;97672.34;;;22.20;88.14
41044;BME280;51680;49.806;18.774;2023-06-22T02:49:51;97672.84;;;22.24;88.20
41044;BME280;51680;49.806;18.774;2023-06-22T02:52:53;97681.47;;;22.26;87.72
41044;BME280;51680;49.806;18.774;2023-06-22T02:55:55;97682.50;;;22.33;87.43
41044;BME280;51680;49.806;18.774;2023-06-22T02:58:58;97686.34;;;22.30;87.30
41044;BME280;51680;49.806;18.774;2023-06-22T03:02:04;97694.66;;;22.35;87.26
41044;BME280;51680;49.806;18.774;2023-06-22T03:05:07;97692.00;;;22.35;87.06
41044;BME280;51680;49.806;18.774;2023-06-22T03:08:14;97695.16;;;22.39;86.98
41044;BME280;51680;49.806;18.774;2023-06-22T03:11:35;97695.84;;;22.41;86.79
41044;BME280;51680;49.806;18.774;2023-06-22T03:14:37;97692.19;;;22.42;86.74
41044;BME280;51680;49.806;18.774;2023-06-22T03:17:41;97689.03;;;22.46;86.36
41044;BME280;51680;49.806;18.774;2023-06-22T03:20:43;97698.88;;;22.46;86.32
41044;BME280;51680;49.806;18.774;2023-06-22T03:23:46;97708.81;;;22.44;86.70
41044;BME280;51680;49.806;18.774;2023-06-22T03:26:48;97709.53;;;22.46;86.43
41044;BME280;51680;49.806;18.774;2023-06-22T03:29:49;97707.31;;;22.33;87.09
41044;BME280;51680;49.806;18.774;2023-06-22T03:32:53;97714.44;;;22.33;86.88
41044;BME280;51680;49.806;18.774;2023-06-22T03:35:55;97717.94;;;22.41;86.99
41044;BME280;51680;49.806;18.774;2023-06-22T03:38:57;97713.69;;;22.48;86.56
41044;BME280;51680;49.806;18.774;2023-06-22T03:41:58;97712.53;;;22.51;86.65
41044;BME280;51680;49.806;18.774;2023-06-22T03:45:01;97708.34;;;22.48;86.71
41044;BME280;51680;49.806;18.774;2023-06-22T03:48:05;97714.50;;;22.49;86.48
41044;BME280;51680;49.806;18.774;2023-06-22T03:51:07;97714.00;;;22.45;86.50
41044;BME280;51680;49.806;18.774;2023-06-22T03:54:10;97708.84;;;22.52;86.52
41044;BME280;51680;49.806;18.774;2023-06-22T03:57:12;97702.50;;;22.45;86.70
41044;BME280;51680;49.806;18.774;2023-06-22T04:00:14;97710.47;;;22.37;87.42
41044;BME280;51680;49.806;18.774;2023-06-22T04:03:19;97709.78;;;22.35;87.46
41044;BME280;51680;49.806;18.774;2023-06-22T04:06:21;97718.47;;;22.45;87.16
41044;BME280;51680;49.806;18.774;2023-06-22T04:09:23;97708.16;;;22.42;87.77
41044;BME280;51680;49.806;18.774;2023-06-22T04:12:25;97713.03;;;22.54;87.05
41044;BME280;51680;49.806;18.774;2023-06-22T04:15:27;97713.88;;;22.71;86.36
41044;BME280;51680;49.806;18.774;2023-06-22T04:18:30;97711.22;;;22.95;85.68
41044;BME280;51680;49.806;18.774;2023-06-22T04:21:32;97720.88;;;23.20;84.93
41044;BME280;51680;49.806;18.774;2023-06-22T04:24:34;97719.84;;;23.45;83.44
41044;BME280;51680;49.806;18.774;2023-06-22T04:27:36;97714.59;;;23.75;82.99
41044;BME280;51680;49.806;18.774;2023-06-22T04:30:40;97724.41;;;23.99;81.44
41044;BME280;51680;49.806;18.774;2023-06-22T04:33:48;97728.88;;;24.37;80.96
41044;BME280;51680;49.806;18.774;2023-06-22T04:36:52;97727.03;;;24.68;79.27
41044;BME280;51680;49.806;18.774;2023-06-22T04:39:53;97727.16;;;24.97;78.28
41044;BME280;51680;49.806;18.774;2023-06-22T04:42:55;97729.00;;;25.19;78.40
41044;BME280;51680;49.806;18.774;2023-06-22T04:45:57;97725.94;;;25.22;76.97
41044;BME280;51680;49.806;18.774;2023-06-22T04:49:06;97724.06;;;25.08;77.06
41044;BME280;51680;49.806;18.774;2023-06-22T04:52:12;97736.03;;;25.12;77.35
41044;BME280;51680;49.806;18.774;2023-06-22T04:55:14;97738.25;;;25.31;77.00
41044;BME280;51680;49.806;18.774;2023-06-22T04:58:18;97729.63;;;25.58;76.46
41044;BME280;51680;49.806;18.774;2023-06-22T05:01:21;97731.75;;;25.91;75.45
41044;BME280;51680;49.806;18.774;2023-06-22T05:04:25;97736.00;;;26.29;74.65
41044;BME280;51680;49.806;18.774;2023-06-22T05:07:28;97753.22;;;26.70;74.14
41044;BME280;51680;49.806;18.774;2023-06-22T05:10:30;97752.03;;;27.15;72.76
41044;BME280;51680;49.806;18.774;2023-06-22T05:13:32;97749.47;;;27.49;70.90
41044;BME280;51680;49.806;18.774;2023-06-22T05:16:34;97754.25;;;27.81;71.04
41044;BME280;51680;49.806;18.774;2023-06-22T05:19:37;97756.53;;;28.18;69.96
41044;BME280;51680;49.806;18.774;2023-06-22T05:22:39;97752.81;;;28.53;69.54
41044;BME280;51680;49.806;18.774;2023-06-22T05:25:43;97748.53;;;28.78;67.06
41044;BME280;51680;49.806;18.774;2023-06-22T05:28:45;97747.81;;;29.03;66.85
41044;BME280;51680;49.806;18.774;2023-06-22T05:31:47;97756.50;;;29.31;66.51
41044;BME280;51680;49.806;18.774;2023-06-22T05:34:51;97764.81;;;29.56;65.86
41044;BME280;51680;49.806;18.774;2023-06-22T05:37:52;97772.69;;;29.64;66.54
41044;BME280;51680;49.806;18.774;2023-06-22T05:40:55;97763.38;;;29.67;66.15
41044;BME280;51680;49.806;18.774;2023-06-22T05:43:57;97761.94;;;29.71;64.61
41044;BME280;51680;49.806;18.774;2023-06-22T05:46:59;97760.88;;;29.78;64.27
41044;BME280;51680;49.806;18.774;2023-06-22T05:50:03;97752.75;;;29.91;63.39
41044;BME280;51680;49.806;18.774;2023-06-22T05:53:07;97751.75;;;29.92;63.35
41044;BME280;51680;49.806;18.774;2023-06-22T05:56:09;97752.50;;;30.25;63.16
41044;BME280;51680;49.806;18.774;2023-06-22T05:59:11;97752.38;;;30.64;62.65
41044;BME280;51680;49.806;18.774;2023-06-22T06:02:12;97764.44;;;30.99;61.87
41044;BME280;51680;49.806;18.774;2023-06-22T06:05:16;97762.19;;;31.27;60.59
41044;BME280;51680;49.806;18.774;2023-06-22T06:08:19;97756.59;;;31.53;60.00
41044;BME280;51680;49.806;18.774;2023-06-22T06:11:21;97758.03;;;31.80;59.43
41044;BME280;51680;49.806;18.774;2023-06-22T06:14:23;97749.22;;;32.09;57.83
41044;BME280;51680;49.806;18.774;2023-06-22T06:17:24;97742.09;;;32.33;57.64
41044;BME280;51680;49.806;18.774;2023-06-22T06:20:28;97751.50;;;32.48;57.15
41044;BME280;51680;49.806;18.774;2023-06-22T06:23:30;97746.88;;;32.67;56.04
41044;BME280;51680;49.806;18.774;2023-06-22T06:26:31;97751.94;;;32.81;55.02
41044;BME280;51680;49.806;18.774;2023-06-22T06:29:36;97754.78;;;32.86;54.99
41044;BME280;51680;49.806;18.774;2023-06-22T06:32:38;97760.53;;;32.90;54.49
41044;BME280;51680;49.806;18.774;2023-06-22T06:35:41;97752.25;;;33.03;55.32
41044;BME280;51680;49.806;18.774;2023-06-22T06:38:43;97754.38;;;33.12;54.56
41044;BME280;51680;49.806;18.774;2023-06-22T06:41:47;97756.75;;;33.20;54.38
41044;BME280;51680;49.806;18.774;2023-06-22T06:44:50;97755.19;;;33.31;54.51
41044;BME280;51680;49.806;18.774;2023-06-22T06:47:52;97754.06;;;33.61;53.71
41044;BME280;51680;49.806;18.774;2023-06-22T06:50:55;97759.66;;;33.89;52.59
41044;BME280;51680;49.806;18.774;2023-06-22T06:53:57;97763.28;;;33.83;52.71
41044;BME280;51680;49.806;18.774;2023-06-22T06:56:59;97758.19;;;33.98;52.14
41044;BME280;51680;49.806;18.774;2023-06-22T07:00:04;97758.25;;;33.87;51.82
41044;BME280;51680;49.806;18.774;2023-06-22T07:03:10;97759.66;;;33.89;52.07
41044;BME280;51680;49.806;18.774;2023-06-22T07:06:13;97761.50;;;33.77;52.25
41044;BME280;51680;49.806;18.774;2023-06-22T07:09:16;97759.75;;;33.94;52.72
41044;BME280;51680;49.806;18.774;2023-06-22T07:12:19;97761.97;;;33.86;52.17
41044;BME280;51680;49.806;18.774;2023-06-22T07:15:21;97762.09;;;34.02;52.44
41044;BME280;51680;49.806;18.774;2023-06-22T07:18:23;97759.50;;;34.07;52.16
41044;BME280;51680;49.806;18.774;2023-06-22T07:21:28;97754.34;;;33.94;51.98
41044;BME280;51680;49.806;18.774;2023-06-22T07:24:30;97762.94;;;34.03;51.90
41044;BME280;51680;49.806;18.774;2023-06-22T07:27:33;97767.88;;;34.29;52.30
41044;BME280;51680;49.806;18.774;2023-06-22T07:30:36;97765.34;;;34.50;49.43
41044;BME280;51680;49.806;18.774;2023-06-22T07:33:38;97764.81;;;34.76;51.58
41044;BME280;51680;49.806;18.774;2023-06-22T07:36:41;97767.44;;;34.71;50.73
41044;BME280;51680;49.806;18.774;2023-06-22T07:39:43;97772.03;;;34.71;50.78
41044;BME280;51680;49.806;18.774;2023-06-22T07:42:45;97772.25;;;34.69;50.56
41044;BME280;51680;49.806;18.774;2023-06-22T07:45:49;97763.94;;;34.99;49.87
41044;BME280;51680;49.806;18.774;2023-06-22T07:48:53;97763.47;;;35.18;49.68
41044;BME280;51680;49.806;18.774;2023-06-22T07:51:57;97758.03;;;35.18;48.84
41044;BME280;51680;49.806;18.774;2023-06-22T07:54:59;97756.81;;;34.81;50.67
41044;BME280;51680;49.806;18.774;2023-06-22T07:58:01;97760.50;;;34.64;50.79
41044;BME280;51680;49.806;18.774;2023-06-22T08:01:02;97767.13;;;34.56;51.25
41044;BME280;51680;49.806;18.774;2023-06-22T08:04:05;97760.09;;;34.83;50.80
41044;BME280;51680;49.806;18.774;2023-06-22T08:07:08;97763.88;;;35.10;49.96
41044;BME280;51680;49.806;18.774;2023-06-22T08:10:11;97768.16;;;35.34;49.78
41044;BME280;51680;49.806;18.774;2023-06-22T08:13:13;97770.66;;;35.52;48.40
41044;BME280;51680;49.806;18.774;2023-06-22T08:16:15;97780.69;;;35.68;48.38
41044;BME280;51680;49.806;18.774;2023-06-22T08:19:17;97784.34;;;35.90;47.17
41044;BME280;51680;49.806;18.774;2023-06-22T08:22:20;97783.50;;;36.06;46.96
41044;BME280;51680;49.806;18.774;2023-06-22T08:25:22;97788.34;;;36.04;46.56
41044;BME280;51680;49.806;18.774;2023-06-22T08:28:24;97790.91;;;36.11;46.60
41044;BME280;51680;49.806;18.774;2023-06-22T08:31:26;97793.91;;;36.09;46.26
41044;BME280;51680;49.806;18.774;2023-06-22T08:34:28;97796.03;;;35.91;46.77
41044;BME280;51680;49.806;18.774;2023-06-22T08:37:32;97788.72;;;35.75;46.58
41044;BME280;51680;49.806;18.774;2023-06-22T08:40:35;97794.72;;;35.77;47.26
41044;BME280;51680;49.806;18.774;2023-06-22T08:43:37;97799.34;;;35.93;47.10
41044;BME280;51680;49.806;18.774;2023-06-22T08:46:58;97797.84;;;36.02;46.07
41044;BME280;51680;49.806;18.774;2023-06-22T08:50:00;97788.03;;;36.01;45.07
41044;BME280;51680;49.806;18.774;2023-06-22T08:53:05;97790.75;;;35.84;45.98
41044;BME280;51680;49.806;18.774;2023-06-22T08:56:07;97795.72;;;35.87;46.75
41044;BME280;51680;49.806;18.774;2023-06-22T08:59:08;97787.97;;;35.79;46.58
41044;BME280;51680;49.806;18.774;2023-06-22T09:02:11;97785.63;;;35.38;45.77
41044;BME280;51680;49.806;18.774;2023-06-22T09:05:13;97774.16;;;35.08;47.22
41044;BME280;51680;49.806;18.774;2023-06-22T09:08:17;97777.03;;;35.02;47.51
41044;BME280;51680;49.806;18.774;2023-06-22T09:11:19;97776.78;;;35.31;45.89
41044;BME280;51680;49.806;18.774;2023-06-22T09:14:21;97773.19;;;35.14;46.10
41044;BME280;51680;49.806;18.774;2023-06-22T09:17:23;97779.53;;;35.48;46.80
41044;BME280;51680;49.806;18.774;2023-06-22T09:20:25;97769.50;;;35.20;45.88
41044;BME280;51680;49.806;18.774;2023-06-22T09:23:28;97766.84;;;35.09;46.81
41044;BME280;51680;49.806;18.774;2023-06-22T09:26:30;97767.22;;;35.01;47.36
41044;BME280;51680;49.806;18.774;2023-06-22T09:29:35;97767.34;;;35.50;46.64
41044;BME280;51680;49.806;18.774;2023-06-22T09:32:37;97775.13;;;35.91;46.13
41044;BME280;51680;49.806;18.774;2023-06-22T09:35:39;97759.41;;;36.31;45.31
41044;BME280;51680;49.806;18.774;2023-06-22T09:38:42;97753.53;;;36.61;44.41
41044;BME280;51680;49.806;18.774;2023-06-22T09:41:44;97748.75;;;36.94;44.40
41044;BME280;51680;49.806;18.774;2023-06-22T09:44:46;97750.09;;;37.13;44.84
41044;BME280;51680;49.806;18.774;2023-06-22T09:47:51;97749.00;;;37.14;43.67
41044;BME280;51680;49.806;18.774;2023-06-22T09:50:56;97745.84;;;36.36;42.52
41044;BME280;51680;49.806;18.774;2023-06-22T09:53:59;97743.34;;;36.13;44.80
41044;BME280;51680;49.806;18.774;2023-06-22T09:57:01;97744.19;;;35.03;46.16
41044;BME280;51680;49.806;18.774;2023-06-22T10:00:04;97734.25;;;34.81;46.97
41044;BME280;51680;49.806;18.774;2023-06-22T10:03:09;97737.00;;;34.07;47.67
41044;BME280;51680;49.806;18.774;2023-06-22T10:06:11;97744.41;;;34.34;47.57
41044;BME280;51680;49.806;18.774;2023-06-22T10:09:14;97733.47;;;34.80;46.28
41044;BME280;51680;49.806;18.774;2023-06-22T10:12:16;97734.88;;;35.27;45.48
41044;BME280;51680;49.806;18.774;2023-06-22T10:15:18;97733.25;;;35.59;44.92
41044;BME280;51680;49.806;18.774;2023-06-22T10:18:20;97731.38;;;35.43;45.89
41044;BME280;51680;49.806;18.774;2023-06-22T10:21:22;97738.22;;;35.18;46.20
41044;BME280;51680;49.806;18.774;2023-06-22T10:24:25;97735.03;;;35.37;45.06
41044;BME280;51680;49.806;18.774;2023-06-22T10:27:27;97728.47;;;35.33;45.50
41044;BME280;51680;49.806;18.774;2023-06-22T10:30:30;97726.81;;;35.32;45.18
41044;BME280;51680;49.806;18.774;2023-06-22T10:33:32;97729.75;;;35.14;44.88
41044;BME280;51680;49.806;18.774;2023-06-22T10:36:34;97732.25;;;34.88;45.78
41044;BME280;51680;49.806;18.774;2023-06-22T10:39:38;97733.09;;;34.37;47.32
41044;BME280;51680;49.806;18.774;2023-06-22T10:42:40;97734.06;;;33.85;47.73
41044;BME280;51680;49.806;18.774;2023-06-22T10:45:43;97731.47;;;33.90;47.85
41044;BME280;51680;49.806;18.774;2023-06-22T10:48:45;97720.47;;;34.20;48.01
41044;BME280;51680;49.806;18.774;2023-06-22T10:51:47;97723.72;;;34.56;47.45
41044;BME280;51680;49.806;18.774;2023-06-22T10:54:50;97722.09;;;34.83;46.84
41044;BME280;51680;49.806;18.774;2023-06-22T10:57:52;97714.63;;;34.90;45.56
41044;BME280;51680;49.806;18.774;2023-06-22T11:00:54;97712.09;;;35.00;45.99
41044;BME280;51680;49.806;18.774;2023-06-22T11:03:56;97712.09;;;35.00;45.53
41044;BME280;51680;49.806;18.774;2023-06-22T11:06:58;97704.53;;;35.02;46.71
41044;BME280;51680;49.806;18.774;2023-06-22T11:10:02;97701.63;;;34.92;45.43
41044;BME280;51680;49.806;18.774;2023-06-22T11:13:04;97690.28;;;34.67;46.27
41044;BME280;51680;49.806;18.774;2023-06-22T11:16:10;97685.84;;;33.76;46.49
41044;BME280;51680;49.806;18.774;2023-06-22T11:19:12;97693.25;;;32.93;49.42
41044;BME280;51680;49.806;18.774;2023-06-22T11:22:14;97693.75;;;32.72;51.22
41044;BME280;51680;49.806;18.774;2023-06-22T11:25:17;97691.47;;;32.87;50.22
41044;BME280;51680;49.806;18.774;2023-06-22T11:28:19;97697.06;;;33.15;49.15
41044;BME280;51680;49.806;18.774;2023-06-22T11:31:40;97693.25;;;33.34;48.60
41044;BME280;51680;49.806;18.774;2023-06-22T11:34:43;97697.97;;;33.50;49.14
41044;BME280;51680;49.806;18.774;2023-06-22T11:37:45;97692.94;;;33.65;49.82
41044;BME280;51680;49.806;18.774;2023-06-22T11:40:49;97685.28;;;33.85;48.00
41044;BME280;51680;49.806;18.774;2023-06-22T11:43:51;97679.59;;;33.98;47.68
41044;BME280;51680;49.806;18.774;2023-06-22T11:46:52;97672.03;;;34.12;47.12
41044;BME280;51680;49.806;18.774;2023-06-22T11:49:55;97675.22;;;34.09;48.01
41044;BME280;51680;49.806;18.774;2023-06-22T11:52:57;97678.75;;;34.09;47.59
41044;BME280;51680;49.806;18.774;2023-06-22T11:56:00;97655.03;;;34.16;47.54
41044;BME280;51680;49.806;18.774;2023-06-22T11:59:02;97657.84;;;34.21;48.09
41044;BME280;51680;49.806;18.774;2023-06-22T12:02:05;97649.94;;;34.31;47.81
41044;BME280;51680;49.806;18.774;2023-06-22T12:05:08;97649.81;;;34.26;47.85
41044;BME280;51680;49.806;18.774;2023-06-22T12:08:10;97656.88;;;34.27;48.05
41044;BME280;51680;49.806;18.774;2023-06-22T12:11:13;97646.09;;;34.16;47.19
41044;BME280;51680;49.806;18.774;2023-06-22T12:14:15;97651.56;;;33.58;48.12
41044;BME280;51680;49.806;18.774;2023-06-22T12:17:17;97654.47;;;33.11;48.30
41044;BME280;51680;49.806;18.774;2023-06-22T12:20:19;97644.47;;;32.70;49.84
41044;BME280;51680;49.806;18.774;2023-06-22T12:23:21;97636.81;;;32.67;49.01
41044;BME280;51680;49.806;18.774;2023-06-22T12:26:24;97641.94;;;32.57;49.64
41044;BME280;51680;49.806;18.774;2023-06-22T12:29:26;97632.69;;;32.35;51.75
41044;BME280;51680;49.806;18.774;2023-06-22T12:32:28;97620.75;;;32.54;48.96
41044;BME280;51680;49.806;18.774;2023-06-22T12:35:30;97629.66;;;32.73;48.66
41044;BME280;51680;49.806;18.774;2023-06-22T12:38:32;97614.50;;;32.83;48.82
41044;BME280;51680;49.806;18.774;2023-06-22T12:41:35;97618.53;;;32.92;47.13
41044;BME280;51680;49.806;18.774;2023-06-22T12:44:38;97610.78;;;32.84;48.05
41044;BME280;51680;49.806;18.774;2023-06-22T12:47:39;97625.59;;;32.82;47.55
41044;BME280;51680;49.806;18.774;2023-06-22T12:50:41;97619.19;;;32.76;47.43
41044;BME280;51680;49.806;18.774;2023-06-22T12:53:44;97611.13;;;32.58;48.39
41044;BME280;51680;49.806;18.774;2023-06-22T12:56:47;97605.47;;;32.48;48.86
41044;BME280;51680;49.806;18.774;2023-06-22T12:59:49;97612.78;;;32.59;48.50
41044;BME280;51680;49.806;18.774;2023-06-22T13:02:51;97605.53;;;32.71;48.45
41044;BME280;51680;49.806;18.774;2023-06-22T13:05:53;97609.84;;;32.90;46.90
41044;BME280;51680;49.806;18.774;2023-06-22T13:08:55;97604.44;;;33.02;46.79
41044;BME280;51680;49.806;18.774;2023-06-22T13:11:59;97595.72;;;33.00;47.39
41044;BME280;51680;49.806;18.774;2023-06-22T13:15:01;97591.00;;;32.95;46.94
41044;BME280;51680;49.806;18.774;2023-06-22T13:18:04;97590.88;;;32.79;47.03
41044;BME280;51680;49.806;18.774;2023-06-22T13:21:05;97582.41;;;32.46;46.99
41044;BME280;51680;49.806;18.774;2023-06-22T13:24:07;97590.50;;;32.46;49.54
41044;BME280;51680;49.806;18.774;2023-06-22T13:27:11;97580.78;;;32.56;47.79
41044;BME280;51680;49.806;18.774;2023-06-22T13:30:13;97578.94;;;32.68;47.36
41044;BME280;51680;49.806;18.774;2023-06-22T13:33:15;97576.34;;;32.73;47.11
41044;BME280;51680;49.806;18.774;2023-06-22T13:36:17;97571.69;;;32.80;46.22
41044;BME280;51680;49.806;18.774;2023-06-22T13:39:20;97577.34;;;32.90;47.94
41044;BME280;51680;49.806;18.774;2023-06-22T13:42:24;97567.84;;;32.99;46.21
41044;BME280;51680;49.806;18.774;2023-06-22T13:45:26;97574.56;;;33.08;46.14
41044;BME280;51680;49.806;18.774;2023-06-22T13:48:28;97563.34;;;33.16;47.56
41044;BME280;51680;49.806;18.774;2023-06-22T13:51:30;97564.28;;;32.99;45.39
41044;BME280;51680;49.806;18.774;2023-06-22T13:54:59;97561.47;;;32.94;44.79
41044;BME280;51680;49.806;18.774;2023-06-22T13:58:02;97563.22;;;32.88;45.16
41044;BME280;51680;49.806;18.774;2023-06-22T14:01:04;97555.22;;;32.93;46.34
41044;BME280;51680;49.806;18.774;2023-06-22T14:04:06;97555.72;;;32.90;45.08
41044;BME280;51680;49.806;18.774;2023-06-22T14:07:07;97558.06;;;32.98;45.29
41044;BME280;51680;49.806;18.774;2023-06-22T14:10:10;97556.41;;;32.97;44.46
41044;BME280;51680;49.806;18.774;2023-06-22T14:13:13;97561.81;;;32.97;44.42
41044;BME280;51680;49.806;18.774;2023-06-22T14:16:15;97559.94;;;32.98;46.00
41044;BME280;51680;49.806;18.774;2023-06-22T14:19:17;97551.09;;;33.02;45.47
41044;BME280;51680;49.806;18.774;2023-06-22T14:22:20;97551.59;;;33.11;45.10
41044;BME280;51680;49.806;18.774;2023-06-22T14:25:22;97555.84;;;33.18;45.83
41044;BME280;51680;49.806;18.774;2023-06-22T14:28:25;97541.00;;;33.21;44.03
41044;BME280;51680;49.806;18.774;2023-06-22T14:31:27;97548.91;;;33.22;44.74
41044;BME280;51680;49.806;18.774;2023-06-22T14:34:29;97538.41;;;33.26;43.89
41044;BME280;51680;49.806;18.774;2023-06-22T14:37:31;97532.50;;;33.29;44.03
41044;BME280;51680;49.806;18.774;2023-06-22T14:40:33;97534.41;;;33.28;44.13
41044;BME280;51680;49.806;18.774;2023-06-22T14:43:36;97529.94;;;33.11;42.82
41044;BME280;51680;49.806;18.774;2023-06-22T14:46:38;97529.22;;;33.04;43.62
41044;BME280;51680;49.806;18.774;2023-06-22T14:49:39;97535.38;;;32.99;43.75
41044;BME280;51680;49.806;18.774;2023-06-22T14:52:41;97528.41;;;33.03;44.43
41044;BME280;51680;49.806;18.774;2023-06-22T14:55:43;97528.28;;;33.10;44.13
41044;BME280;51680;49.806;18.774;2023-06-22T14:58:46;97531.47;;;33.18;43.58
41044;BME280;51680;49.806;18.774;2023-06-22T15:01:49;97532.88;;;33.09;42.79
41044;BME280;51680;49.806;18.774;2023-06-22T15:04:50;97534.06;;;33.13;43.71
41044;BME280;51680;49.806;18.774;2023-06-22T15:07:53;97537.34;;;33.15;44.00
41044;BME280;51680;49.806;18.774;2023-06-22T15:10:58;97526.06;;;33.18;43.80
41044;BME280;51680;49.806;18.774;2023-06-22T15:14:01;97521.81;;;33.22;43.64
41044;BME280;51680;49.806;18.774;2023-06-22T15:17:04;97521.69;;;33.17;43.98
41044;BME280;51680;49.806;18.774;2023-06-22T15:20:06;97515.22;;;33.18;43.25
41044;BME280;51680;49.806;18.774;2023-06-22T15:23:08;97515.69;;;33.15;43.21
41044;BME280;51680;49.806;18.774;2023-06-22T15:26:10;97515.00;;;33.20;43.75
41044;BME280;51680;49.806;18.774;2023-06-22T15:29:14;97502.25;;;33.20;43.46
41044;BME280;51680;49.806;18.774;2023-06-22T15:32:15;97510.63;;;33.07;43.85
41044;BME280;51680;49.806;18.774;2023-06-22T15:35:36;97510.06;;;33.05;44.39
41044;BME280;51680;49.806;18.774;2023-06-22T15:38:38;97506.50;;;32.93;44.11
41044;BME280;51680;49.806;18.774;2023-06-22T15:41:40;97505.72;;;32.93;43.93
41044;BME280;51680;49.806;18.774;2023-06-22T15:44:44;97508.63;;;32.91;43.52
41044;BME280;51680;49.806;18.774;2023-06-22T15:47:46;97504.75;;;32.87;43.99
41044;BME280;51680;49.806;18.774;2023-06-22T15:50:48;97507.94;;;32.84;44.03
41044;BME280;51680;49.806;18.774;2023-06-22T15:53:50;97511.53;;;32.67;43.47
41044;BME280;51680;49.806;18.774;2023-06-22T15:56:52;97501.19;;;32.64;43.27